createdAt,value
2022-09-02T00:05:01.311Z,52.2
2022-09-02T00:10:52.222Z,52.7
2022-09-02T00:16:43.023Z,52.4
2022-09-02T00:22:34.031Z,52.4
2022-09-02T00:28:25.906Z,53.4
2022-09-02T00:34:18.805Z,53.9
2022-09-02T00:40:11.168Z,53.8
2022-09-02T00:46:02.686Z,54.3
2022-09-02T00:51:54.164Z,54.4
2022-09-02T00:58:54.153Z,54
2022-09-02T01:04:44.957Z,53.5
2022-09-02T01:10:37.073Z,54.1
2022-09-02T01:16:29.385Z,53.7
2022-09-02T01:22:21.736Z,53.6
2022-09-02T01:28:12.412Z,53.8
2022-09-02T01:34:04.803Z,54
2022-09-02T01:39:58.066Z,54.6
2022-09-02T01:45:48.185Z,55.4
2022-09-02T01:51:39.211Z,55.6
2022-09-02T01:58:39.894Z,55.3
2022-09-02T02:04:30.868Z,55.4
2022-09-02T02:10:23.709Z,55.6
2022-09-02T02:16:16.732Z,55.4
2022-09-02T02:22:08.117Z,55.5
2022-09-02T02:28:00.435Z,55.5
2022-09-02T02:33:57.097Z,55.4
2022-09-02T02:39:49.779Z,55.5
2022-09-02T02:45:42.951Z,55.5
2022-09-02T02:51:33.859Z,55.9
2022-09-02T02:57:26.743Z,56.4
2022-09-02T03:03:19.608Z,56.7
2022-09-02T03:09:13.114Z,56.6
2022-09-02T03:15:05.804Z,56.6
2022-09-02T03:20:58.390Z,56.7
2022-09-02T03:26:50.610Z,56.8
2022-09-02T03:32:41.227Z,56.9
2022-09-02T03:38:32.086Z,57.6
2022-09-02T03:44:25.959Z,57.4
2022-09-02T03:50:14.959Z,57.9
2022-09-02T03:56:04.849Z,58.1
2022-09-02T04:01:56.343Z,57.8
2022-09-02T04:07:48.527Z,58.2
2022-09-02T04:13:37.411Z,58.3
2022-09-02T04:19:28.563Z,58.2
2022-09-02T04:25:19.924Z,58.4
2022-09-02T04:31:18.105Z,58.2
2022-09-02T04:37:09.121Z,58.3
2022-09-02T04:43:01.630Z,58.3
2022-09-02T04:48:53.869Z,58.2
2022-09-02T04:54:44.870Z,58.9
2022-09-02T05:00:34.791Z,59
2022-09-02T05:06:25.878Z,59.2
2022-09-02T05:12:16.711Z,59.2
2022-09-02T05:18:07.365Z,59
2022-09-02T05:23:59.030Z,59.4
2022-09-02T05:29:50.289Z,59.7
2022-09-02T05:36:49.111Z,59.6
2022-09-02T05:42:38.510Z,59.7
2022-09-02T05:48:29.452Z,59.7
2022-09-02T05:54:20.937Z,59.2
2022-09-02T06:00:19.552Z,59
2022-09-02T06:06:12.331Z,58.8
2022-09-02T06:12:04.531Z,57.6
2022-09-02T06:17:57.656Z,57.9
2022-09-02T06:23:51.545Z,57.2
2022-09-02T06:29:43.441Z,56.8
2022-09-02T06:35:34.972Z,56.5
2022-09-02T06:41:26.346Z,56.4
2022-09-02T06:47:17.015Z,56.5
2022-09-02T06:53:08.283Z,56.6
2022-09-02T06:59:00.503Z,56.2
2022-09-02T07:04:57.121Z,56.5
2022-09-02T07:10:50.259Z,56.5
2022-09-02T07:16:43.123Z,56.1
2022-09-02T07:22:34.495Z,55.8
2022-09-02T07:28:27.940Z,55.6
2022-09-02T07:34:18.618Z,55
2022-09-02T07:40:09.904Z,55.2
2022-09-02T07:46:01.512Z,54.6
2022-09-02T07:51:53.165Z,54.4
2022-09-02T07:57:47.490Z,53.9
2022-09-02T08:03:41.959Z,53.8
2022-09-02T08:09:31.262Z,53.4
2022-09-02T08:15:21.664Z,52
2022-09-02T08:21:14.879Z,53
2022-09-02T08:27:05.956Z,51
2022-09-02T08:32:58.523Z,51.5
2022-09-02T08:38:50.423Z,51.1
2022-09-02T08:44:41.843Z,51.2
2022-09-02T08:50:35.480Z,50.2
2022-09-02T08:56:29.318Z,49.9
2022-09-02T09:02:23.188Z,49.5
2022-09-02T09:08:17.270Z,48.9
2022-09-02T09:14:12.652Z,47.4
2022-09-02T09:20:03.023Z,46.8
2022-09-02T09:25:54.895Z,47
2022-09-02T09:31:46.445Z,45.4
2022-09-02T09:37:39.011Z,45.2
2022-09-02T09:43:30.083Z,44.9
2022-09-02T09:49:22.654Z,45.2
2022-09-02T09:55:15.196Z,44.5
2022-09-02T10:01:13.278Z,44.1
2022-09-02T10:07:03.446Z,42.9
2022-09-02T10:12:54.407Z,42.8
2022-09-02T10:18:50.824Z,41
2022-09-02T10:24:41.353Z,41.2
2022-09-02T10:30:32.786Z,41.1
2022-09-02T10:36:27.119Z,40.1
2022-09-02T10:42:18.315Z,39.6
2022-09-02T10:48:10.611Z,39.2
2022-09-02T10:54:01.442Z,38.6
2022-09-02T10:59:52.837Z,38.5
2022-09-02T11:05:45.824Z,38.4
2022-09-02T11:11:37.267Z,37.2
2022-09-02T11:17:29.077Z,36.4
2022-09-02T11:23:20.276Z,36
2022-09-02T11:29:12.300Z,36.8
2022-09-02T11:35:05.000Z,37.8
2022-09-02T11:41:36.553Z,36.5
2022-09-02T11:47:27.485Z,35.4
2022-09-02T11:53:28.143Z,35.2
2022-09-02T11:59:17.826Z,36.1
2022-09-02T12:05:10.800Z,35.5
2022-09-02T12:11:04.529Z,35.9
2022-09-02T12:16:56.317Z,33.9
2022-09-02T12:22:48.663Z,34.6
2022-09-02T12:28:39.964Z,33.6
2022-09-02T12:34:33.789Z,32.3
2022-09-02T12:40:32.113Z,33.4
2022-09-02T12:46:24.359Z,33.3
2022-09-02T12:52:17.798Z,33.8
2022-09-02T12:58:10.431Z,32
2022-09-02T13:04:02.176Z,32.5
2022-09-02T13:09:53.534Z,32.6
2022-09-02T13:15:45.931Z,32
2022-09-02T13:21:39.342Z,32.6
2022-09-02T13:27:29.888Z,31.6
2022-09-02T13:33:19.450Z,32.1
2022-09-02T13:39:09.468Z,32.5
2022-09-02T13:44:59.430Z,31.4
2022-09-02T13:50:52.811Z,31.8
2022-09-02T13:56:44.199Z,32.8
2022-09-02T14:02:37.434Z,31.3
2022-09-02T14:08:28.751Z,30.8
2022-09-02T14:14:19.415Z,32
2022-09-02T14:20:11.229Z,31.1
2022-09-02T14:26:04.373Z,32.4
2022-09-02T14:31:56.811Z,31.2
2022-09-02T14:37:49.749Z,31.7
2022-09-02T14:43:41.520Z,32.6
2022-09-02T14:49:37.533Z,32
2022-09-02T14:55:42.018Z,32.7
2022-09-02T15:01:33.276Z,31.5
2022-09-02T15:07:24.994Z,32.9
2022-09-02T15:13:15.941Z,31.9
2022-09-02T15:19:05.060Z,31.8
2022-09-02T15:24:56.414Z,32.1
2022-09-02T15:30:49.599Z,33.2
2022-09-02T15:36:42.328Z,32.6
2022-09-02T15:42:35.975Z,32.4
2022-09-02T15:48:27.225Z,31.6
2022-09-02T15:54:19.603Z,31.5
2022-09-02T16:00:12.512Z,32.6
2022-09-02T16:06:03.973Z,32
2022-09-02T16:11:56.257Z,31.7
2022-09-02T16:17:47.328Z,31.5
2022-09-02T16:23:39.458Z,32.8
2022-09-02T16:29:30.814Z,32
2022-09-02T16:35:21.524Z,31.6
2022-09-02T16:41:12.593Z,31.8
2022-09-02T16:47:03.690Z,32.6
2022-09-02T16:52:58.586Z,32.7
2022-09-02T16:58:49.630Z,32.1
2022-09-02T17:04:40.903Z,32.2
2022-09-02T17:10:31.768Z,32.3
2022-09-02T17:16:24.458Z,33.2
2022-09-02T17:22:15.578Z,32.6
2022-09-02T17:28:07.398Z,33
2022-09-02T17:33:58.892Z,32.8
2022-09-02T17:39:50.506Z,34.1
2022-09-02T17:45:42.739Z,34.3
2022-09-02T17:51:33.662Z,34.5
2022-09-02T17:57:25.437Z,34.4
2022-09-02T18:03:22.110Z,34.3
2022-09-02T18:09:20.390Z,34.6
2022-09-02T18:15:27.456Z,36
2022-09-02T18:21:19.055Z,36.3
2022-09-02T18:27:09.895Z,37.8
2022-09-02T18:34:05.585Z,39.2
2022-09-02T18:39:57.325Z,39.9
2022-09-02T18:45:53.385Z,40.4
2022-09-02T18:51:43.434Z,40.5
2022-09-02T18:57:35.324Z,40.4
2022-09-02T19:03:23.977Z,41.3
2022-09-02T19:09:13.769Z,42.1
2022-09-02T19:15:03.369Z,42.7
2022-09-02T19:20:53.822Z,42.7
2022-09-02T19:26:43.732Z,44
2022-09-02T19:32:33.163Z,43.8
2022-09-02T19:38:23.576Z,44.3
2022-09-02T19:44:13.888Z,44.6
2022-09-02T19:50:03.603Z,45.7
2022-09-02T19:55:53.586Z,47.3
2022-09-02T20:01:43.506Z,46
2022-09-02T20:07:33.307Z,47.6
2022-09-02T20:13:23.348Z,48.9
2022-09-02T20:19:13.065Z,50
2022-09-02T20:25:05.435Z,48.1
2022-09-02T20:30:56.341Z,50.4
2022-09-02T20:36:46.449Z,51
2022-09-02T20:42:35.976Z,51.8
2022-09-02T20:48:25.416Z,52
2022-09-02T20:54:17.252Z,51.9
2022-09-02T21:00:07.462Z,53.1
2022-09-02T21:05:56.985Z,53.6
2022-09-02T21:11:47.110Z,54.2
2022-09-02T21:17:37.089Z,54.2
2022-09-02T21:23:33.837Z,54.3
2022-09-02T21:29:24.033Z,54.1
2022-09-02T21:35:16.250Z,55.5
2022-09-02T21:41:06.100Z,55.1
2022-09-02T21:46:56.546Z,55.2
2022-09-02T21:52:48.008Z,55.7
2022-09-02T21:58:37.080Z,53.5
2022-09-02T22:04:27.428Z,52.9
2022-09-02T22:10:16.793Z,52.2
2022-09-02T22:16:07.364Z,52.2
2022-09-02T22:21:59.353Z,51.2
2022-09-02T22:27:53.443Z,50.7
2022-09-02T22:33:47.720Z,52.1
2022-09-02T22:39:39.561Z,52.2
2022-09-02T22:45:30.998Z,52.6
2022-09-02T22:51:21.710Z,52.2
2022-09-02T22:57:13.646Z,51.9
2022-09-02T23:03:04.878Z,52.8
2022-09-02T23:08:56.005Z,53.2
2022-09-02T23:14:47.009Z,52.8
2022-09-02T23:20:37.827Z,52.3
2022-09-02T23:26:29.022Z,53
2022-09-02T23:32:20.389Z,53.1
2022-09-02T23:38:11.237Z,52.4
2022-09-02T23:44:03.430Z,51.6
2022-09-02T23:49:55.191Z,51.5
2022-09-02T23:55:48.107Z,50.8
